Terminal Aerodrome Forecast
Issued by NWS

Home | Current Version | Previous Version | Text Only | Print | Product List | Glossary On
Versions: 1 2 3 4 5 6 7 8 9 10 11 12
267
FTUS45 KRIW 200536
TAFBPI
TAF
KBPI 200536Z 2006/2106 35011KT P6SM VCSH SCT025 OVC040
      TEMPO 2007/2011 2SM -SN OVC014
     FM201100 35011KT 1SM -SN OVC009
     FM202200 36009KT 3SM -SN OVC018
     FM210300 36010KT P6SM VCSH OVC028=

USA.gov is the U.S. government's official web portal to all federal, state and local government web resources and services.